sensor_id;sensor_type;location;lat;lon;timestamp;pressure;altitude;pressure_sealevel;temperature;humidity
23433;BME280;41331;45.412;10.992;2023-03-14T00:02:15;100303.56;;;12.30;82.81
23433;BME280;41331;45.412;10.992;2023-03-14T00:04:42;100291.03;;;12.53;82.00
23433;BME280;41331;45.412;10.992;2023-03-14T00:07:11;100303.91;;;12.40;82.19
23433;BME280;41331;45.412;10.992;2023-03-14T00:09:38;100293.56;;;12.34;81.60
23433;BME280;41331;45.412;10.992;2023-03-14T00:12:06;100286.31;;;12.26;81.97
23433;BME280;41331;45.412;10.992;2023-03-14T00:14:34;100288.47;;;12.20;82.55
23433;BME280;41331;45.412;10.992;2023-03-14T00:17:01;100294.94;;;12.28;82.61
23433;BME280;41331;45.412;10.992;2023-03-14T00:19:29;100288.81;;;12.18;83.12
23433;BME280;41331;45.412;10.992;2023-03-14T00:21:56;100289.72;;;12.23;82.71
23433;BME280;41331;45.412;10.992;2023-03-14T00:24:23;100292.09;;;12.24;82.45
23433;BME280;41331;45.412;10.992;2023-03-14T00:26:51;100278.34;;;12.33;82.10
23433;BME280;41331;45.412;10.992;2023-03-14T00:29:18;100266.75;;;12.36;82.30
23433;BME280;41331;45.412;10.992;2023-03-14T00:31:45;100271.16;;;12.40;81.41
23433;BME280;41331;45.412;10.992;2023-03-14T00:34:13;100262.97;;;12.40;82.04
23433;BME280;41331;45.412;10.992;2023-03-14T00:36:40;100255.28;;;12.30;82.16
23433;BME280;41331;45.412;10.992;2023-03-14T00:39:07;100249.41;;;12.44;81.32
23433;BME280;41331;45.412;10.992;2023-03-14T00:41:35;100242.38;;;12.43;81.45
23433;BME280;41331;45.412;10.992;2023-03-14T00:44:02;100227.38;;;12.37;81.95
23433;BME280;41331;45.412;10.992;2023-03-14T00:46:29;100213.63;;;12.33;82.37
23433;BME280;41331;45.412;10.992;2023-03-14T00:48:57;100192.03;;;12.40;81.89
23433;BME280;41331;45.412;10.992;2023-03-14T00:51:24;100188.28;;;12.33;82.57
23433;BME280;41331;45.412;10.992;2023-03-14T00:53:51;100177.00;;;12.34;82.34
23433;BME280;41331;45.412;10.992;2023-03-14T00:56:19;100170.06;;;12.37;82.59
23433;BME280;41331;45.412;10.992;2023-03-14T00:58:46;100179.59;;;12.43;82.21
23433;BME280;41331;45.412;10.992;2023-03-14T01:01:16;100177.53;;;12.52;81.49
23433;BME280;41331;45.412;10.992;2023-03-14T01:03:45;100173.47;;;12.46;81.48
23433;BME280;41331;45.412;10.992;2023-03-14T01:06:17;100157.47;;;12.32;82.32
23433;BME280;41331;45.412;10.992;2023-03-14T01:08:46;100149.81;;;12.38;82.30
23433;BME280;41331;45.412;10.992;2023-03-14T01:11:20;100144.19;;;12.31;82.16
23433;BME280;41331;45.412;10.992;2023-03-14T01:13:48;100164.81;;;12.44;81.36
23433;BME280;41331;45.412;10.992;2023-03-14T01:16:16;100160.56;;;12.31;81.97
23433;BME280;41331;45.412;10.992;2023-03-14T01:18:45;100149.72;;;12.34;81.78
23433;BME280;41331;45.412;10.992;2023-03-14T01:21:19;100152.25;;;12.27;81.77
23433;BME280;41331;45.412;10.992;2023-03-14T01:23:48;100142.09;;;12.40;80.68
23433;BME280;41331;45.412;10.992;2023-03-14T01:26:18;100143.03;;;12.32;80.74
23433;BME280;41331;45.412;10.992;2023-03-14T01:28:47;100122.91;;;12.24;80.91
23433;BME280;41331;45.412;10.992;2023-03-14T01:31:16;100120.84;;;12.33;80.21
23433;BME280;41331;45.412;10.992;2023-03-14T01:33:44;100125.00;;;12.43;79.31
23433;BME280;41331;45.412;10.992;2023-03-14T01:36:12;100109.13;;;12.33;79.12
23433;BME280;41331;45.412;10.992;2023-03-14T01:38:41;100113.69;;;12.29;79.12
23433;BME280;41331;45.412;10.992;2023-03-14T01:41:17;100110.88;;;12.25;78.96
23433;BME280;41331;45.412;10.992;2023-03-14T01:43:45;100094.16;;;12.27;78.61
23433;BME280;41331;45.412;10.992;2023-03-14T01:46:32;100086.66;;;12.24;78.50
23433;BME280;41331;45.412;10.992;2023-03-14T01:52:24;100076.69;;;12.43;77.54
23433;BME280;41331;45.412;10.992;2023-03-14T01:57:14;100067.50;;;12.20;77.97
23433;BME280;41331;45.412;10.992;2023-03-14T01:59:47;100062.09;;;12.24;78.34
23433;BME280;41331;45.412;10.992;2023-03-14T02:02:16;100052.22;;;12.19;78.32
23433;BME280;41331;45.412;10.992;2023-03-14T02:04:44;100034.28;;;12.18;78.26
23433;BME280;41331;45.412;10.992;2023-03-14T02:07:35;100027.94;;;12.14;78.53
23433;BME280;41331;45.412;10.992;2023-03-14T02:10:11;100031.19;;;12.19;78.98
23433;BME280;41331;45.412;10.992;2023-03-14T02:12:39;100029.63;;;12.18;79.27
23433;BME280;41331;45.412;10.992;2023-03-14T02:15:14;100013.97;;;12.15;79.07
23433;BME280;41331;45.412;10.992;2023-03-14T02:17:52;99996.00;;;12.14;79.08
23433;BME280;41331;45.412;10.992;2023-03-14T02:21:03;100008.59;;;12.19;79.36
23433;BME280;41331;45.412;10.992;2023-03-14T02:26:34;100022.44;;;12.26;78.62
23433;BME280;41331;45.412;10.992;2023-03-14T02:29:04;100013.53;;;12.29;78.64
23433;BME280;41331;45.412;10.992;2023-03-14T02:31:32;99992.34;;;12.38;78.13
23433;BME280;41331;45.412;10.992;2023-03-14T02:34:00;99983.72;;;12.36;77.57
23433;BME280;41331;45.412;10.992;2023-03-14T02:36:29;99993.13;;;12.39;76.92
23433;BME280;41331;45.412;10.992;2023-03-14T02:39:21;99986.19;;;12.41;76.89
23433;BME280;41331;45.412;10.992;2023-03-14T02:41:51;99982.66;;;12.41;76.34
23433;BME280;41331;45.412;10.992;2023-03-14T02:44:19;99982.31;;;12.42;75.93
23433;BME280;41331;45.412;10.992;2023-03-14T02:46:47;99989.00;;;12.45;75.09
23433;BME280;41331;45.412;10.992;2023-03-14T02:49:15;99989.88;;;12.49;75.08
23433;BME280;41331;45.412;10.992;2023-03-14T02:51:44;99967.97;;;12.46;74.81
23433;BME280;41331;45.412;10.992;2023-03-14T02:54:13;99976.75;;;12.39;75.36
23433;BME280;41331;45.412;10.992;2023-03-14T02:56:41;99988.19;;;12.44;74.71
23433;BME280;41331;45.412;10.992;2023-03-14T02:59:12;99979.31;;;12.48;74.11
23433;BME280;41331;45.412;10.992;2023-03-14T03:01:52;99962.41;;;12.42;74.78
23433;BME280;41331;45.412;10.992;2023-03-14T03:04:20;99980.38;;;12.43;74.72
23433;BME280;41331;45.412;10.992;2023-03-14T03:06:47;99984.66;;;12.44;74.67
23433;BME280;41331;45.412;10.992;2023-03-14T03:09:15;99959.47;;;12.35;74.80
23433;BME280;41331;45.412;10.992;2023-03-14T03:11:42;99948.13;;;12.33;74.80
23433;BME280;41331;45.412;10.992;2023-03-14T03:14:15;99949.72;;;12.34;75.46
23433;BME280;41331;45.412;10.992;2023-03-14T03:16:43;99958.53;;;12.43;74.48
23433;BME280;41331;45.412;10.992;2023-03-14T03:19:10;99953.84;;;12.43;73.80
23433;BME280;41331;45.412;10.992;2023-03-14T03:21:38;99960.72;;;12.37;74.47
23433;BME280;41331;45.412;10.992;2023-03-14T03:24:05;99956.75;;;12.35;74.70
23433;BME280;41331;45.412;10.992;2023-03-14T03:26:34;99926.84;;;12.38;74.14
23433;BME280;41331;45.412;10.992;2023-03-14T03:29:05;99924.00;;;12.35;74.34
23433;BME280;41331;45.412;10.992;2023-03-14T03:31:32;99913.38;;;12.46;74.00
23433;BME280;41331;45.412;10.992;2023-03-14T03:33:59;99886.16;;;12.49;73.23
23433;BME280;41331;45.412;10.992;2023-03-14T03:36:27;99866.28;;;12.33;73.35
23433;BME280;41331;45.412;10.992;2023-03-14T03:38:55;99845.75;;;12.39;73.28
23433;BME280;41331;45.412;10.992;2023-03-14T03:41:24;99844.53;;;12.36;73.68
23433;BME280;41331;45.412;10.992;2023-03-14T03:43:52;99845.59;;;12.32;74.17
23433;BME280;41331;45.412;10.992;2023-03-14T03:46:21;99855.09;;;12.38;73.76
23433;BME280;41331;45.412;10.992;2023-03-14T03:48:57;99858.16;;;12.52;73.58
23433;BME280;41331;45.412;10.992;2023-03-14T03:51:27;99828.69;;;12.42;74.33
23433;BME280;41331;45.412;10.992;2023-03-14T03:53:56;99843.91;;;12.43;74.17
23433;BME280;41331;45.412;10.992;2023-03-14T03:56:28;99846.88;;;12.54;73.61
23433;BME280;41331;45.412;10.992;2023-03-14T03:58:55;99841.88;;;12.56;73.60
23433;BME280;41331;45.412;10.992;2023-03-14T04:01:24;99854.28;;;12.53;74.30
23433;BME280;41331;45.412;10.992;2023-03-14T04:03:54;99841.25;;;12.47;74.85
23433;BME280;41331;45.412;10.992;2023-03-14T04:06:22;99817.91;;;12.49;75.03
23433;BME280;41331;45.412;10.992;2023-03-14T04:08:53;99828.31;;;12.43;75.27
23433;BME280;41331;45.412;10.992;2023-03-14T04:11:36;99833.22;;;12.54;74.70
23433;BME280;41331;45.412;10.992;2023-03-14T04:14:26;99838.34;;;12.55;75.03
23433;BME280;41331;45.412;10.992;2023-03-14T04:17:02;99826.88;;;12.50;74.99
23433;BME280;41331;45.412;10.992;2023-03-14T04:19:30;99812.34;;;12.61;74.54
23433;BME280;41331;45.412;10.992;2023-03-14T04:21:57;99795.81;;;12.54;74.47
23433;BME280;41331;45.412;10.992;2023-03-14T04:24:29;99798.28;;;12.43;75.30
23433;BME280;41331;45.412;10.992;2023-03-14T04:26:57;99777.97;;;12.41;75.65
23433;BME280;41331;45.412;10.992;2023-03-14T04:29:25;99751.31;;;12.34;76.54
23433;BME280;41331;45.412;10.992;2023-03-14T04:31:52;99767.25;;;12.32;77.24
23433;BME280;41331;45.412;10.992;2023-03-14T04:34:20;99788.25;;;12.48;75.60
23433;BME280;41331;45.412;10.992;2023-03-14T04:36:51;99779.28;;;12.47;75.41
23433;BME280;41331;45.412;10.992;2023-03-14T04:39:24;99763.59;;;12.44;76.07
23433;BME280;41331;45.412;10.992;2023-03-14T04:42:05;99776.59;;;12.31;76.52
23433;BME280;41331;45.412;10.992;2023-03-14T04:44:33;99781.97;;;12.28;77.11
23433;BME280;41331;45.412;10.992;2023-03-14T04:47:01;99762.59;;;12.33;76.82
23433;BME280;41331;45.412;10.992;2023-03-14T04:49:28;99760.38;;;12.38;76.71
23433;BME280;41331;45.412;10.992;2023-03-14T04:51:56;99742.00;;;12.35;76.37
23433;BME280;41331;45.412;10.992;2023-03-14T04:54:25;99751.75;;;12.36;76.65
23433;BME280;41331;45.412;10.992;2023-03-14T04:56:56;99738.03;;;12.33;77.18
23433;BME280;41331;45.412;10.992;2023-03-14T04:59:24;99728.09;;;12.25;77.83
23433;BME280;41331;45.412;10.992;2023-03-14T05:01:55;99708.16;;;12.21;78.10
23433;BME280;41331;45.412;10.992;2023-03-14T05:04:43;99708.44;;;12.35;77.50
23433;BME280;41331;45.412;10.992;2023-03-14T05:07:33;99704.41;;;12.29;77.60
23433;BME280;41331;45.412;10.992;2023-03-14T05:10:16;99715.34;;;12.29;77.24
23433;BME280;41331;45.412;10.992;2023-03-14T05:13:01;99703.72;;;12.32;77.02
23433;BME280;41331;45.412;10.992;2023-03-14T05:15:51;99702.78;;;12.43;77.32
23433;BME280;41331;45.412;10.992;2023-03-14T05:18:41;99676.28;;;12.44;77.62
23433;BME280;41331;45.412;10.992;2023-03-14T05:21:13;99687.94;;;12.60;76.81
23433;BME280;41331;45.412;10.992;2023-03-14T05:23:41;99689.41;;;12.38;78.22
23433;BME280;41331;45.412;10.992;2023-03-14T05:26:27;99685.63;;;12.43;77.93
23433;BME280;41331;45.412;10.992;2023-03-14T05:29:13;99675.19;;;12.29;79.15
23433;BME280;41331;45.412;10.992;2023-03-14T05:31:58;99666.88;;;12.41;79.21
23433;BME280;41331;45.412;10.992;2023-03-14T05:34:37;99657.53;;;12.42;79.68
23433;BME280;41331;45.412;10.992;2023-03-14T05:37:26;99670.47;;;12.46;79.71
23433;BME280;41331;45.412;10.992;2023-03-14T05:40:13;99646.75;;;12.50;79.91
23433;BME280;41331;45.412;10.992;2023-03-14T05:43:06;99650.59;;;12.45;80.65
23433;BME280;41331;45.412;10.992;2023-03-14T05:45:48;99658.97;;;12.36;82.05
23433;BME280;41331;45.412;10.992;2023-03-14T05:48:34;99702.56;;;12.33;82.57
23433;BME280;41331;45.412;10.992;2023-03-14T05:51:27;99712.31;;;12.34;82.47
23433;BME280;41331;45.412;10.992;2023-03-14T05:54:05;99719.34;;;12.35;81.96
23433;BME280;41331;45.412;10.992;2023-03-14T05:57:02;99760.47;;;12.42;83.41
23433;BME280;41331;45.412;10.992;2023-03-14T05:59:38;99763.84;;;12.55;84.60
23433;BME280;41331;45.412;10.992;2023-03-14T06:02:35;99776.91;;;12.65;86.55
23433;BME280;41331;45.412;10.992;2023-03-14T06:05:12;99778.81;;;12.26;92.89
23433;BME280;41331;45.412;10.992;2023-03-14T06:07:40;99808.91;;;12.13;95.50
23433;BME280;41331;45.412;10.992;2023-03-14T06:10:08;99798.66;;;11.91;97.79
23433;BME280;41331;45.412;10.992;2023-03-14T06:12:36;99794.84;;;11.80;100.00
23433;BME280;41331;45.412;10.992;2023-03-14T06:15:04;99800.00;;;11.69;100.00
23433;BME280;41331;45.412;10.992;2023-03-14T06:17:33;99801.31;;;11.59;100.00
23433;BME280;41331;45.412;10.992;2023-03-14T06:20:06;99785.94;;;11.67;100.00
23433;BME280;41331;45.412;10.992;2023-03-14T06:22:34;99763.72;;;11.65;100.00
23433;BME280;41331;45.412;10.992;2023-03-14T06:25:02;99745.31;;;11.78;100.00
23433;BME280;41331;45.412;10.992;2023-03-14T06:27:30;99746.09;;;11.78;100.00
23433;BME280;41331;45.412;10.992;2023-03-14T06:29:58;99743.81;;;11.64;100.00
23433;BME280;41331;45.412;10.992;2023-03-14T06:32:26;99743.03;;;11.64;100.00
23433;BME280;41331;45.412;10.992;2023-03-14T06:34:57;99745.69;;;11.60;100.00
23433;BME280;41331;45.412;10.992;2023-03-14T06:37:29;99745.75;;;11.48;100.00
23433;BME280;41331;45.412;10.992;2023-03-14T06:39:57;99755.44;;;11.61;100.00
23433;BME280;41331;45.412;10.992;2023-03-14T06:42:43;99745.31;;;11.46;100.00
23433;BME280;41331;45.412;10.992;2023-03-14T06:45:13;99760.94;;;11.33;100.00
23433;BME280;41331;45.412;10.992;2023-03-14T06:47:41;99756.75;;;11.52;100.00
23433;BME280;41331;45.412;10.992;2023-03-14T06:50:09;99764.97;;;11.39;100.00
23433;BME280;41331;45.412;10.992;2023-03-14T06:52:37;99759.47;;;11.52;100.00
23433;BME280;41331;45.412;10.992;2023-03-14T06:55:08;99749.78;;;11.38;100.00
23433;BME280;41331;45.412;10.992;2023-03-14T06:57:37;99745.63;;;11.29;100.00
23433;BME280;41331;45.412;10.992;2023-03-14T07:00:05;99741.88;;;11.49;100.00
23433;BME280;41331;45.412;10.992;2023-03-14T07:02:34;99735.00;;;11.39;100.00
23433;BME280;41331;45.412;10.992;2023-03-14T07:05:21;99740.81;;;11.38;100.00
23433;BME280;41331;45.412;10.992;2023-03-14T07:07:49;99732.84;;;11.45;100.00
23433;BME280;41331;45.412;10.992;2023-03-14T07:10:17;99724.75;;;11.49;100.00
23433;BME280;41331;45.412;10.992;2023-03-14T07:12:44;99711.72;;;11.42;100.00
23433;BME280;41331;45.412;10.992;2023-03-14T07:15:12;99710.59;;;11.43;100.00
23433;BME280;41331;45.412;10.992;2023-03-14T07:17:48;99715.19;;;11.55;100.00
23433;BME280;41331;45.412;10.992;2023-03-14T07:20:17;99692.28;;;11.59;100.00
23433;BME280;41331;45.412;10.992;2023-03-14T07:22:47;99681.94;;;11.49;100.00
23433;BME280;41331;45.412;10.992;2023-03-14T07:25:19;99699.78;;;11.62;100.00
23433;BME280;41331;45.412;10.992;2023-03-14T07:27:46;99696.16;;;11.58;100.00
23433;BME280;41331;45.412;10.992;2023-03-14T07:30:15;99696.69;;;11.48;100.00
23433;BME280;41331;45.412;10.992;2023-03-14T07:32:43;99695.22;;;11.66;100.00
23433;BME280;41331;45.412;10.992;2023-03-14T07:35:10;99704.81;;;11.60;100.00
23433;BME280;41331;45.412;10.992;2023-03-14T07:37:40;99710.50;;;11.55;100.00
23433;BME280;41331;45.412;10.992;2023-03-14T07:40:09;99706.91;;;11.67;100.00
23433;BME280;41331;45.412;10.992;2023-03-14T07:42:37;99708.47;;;11.68;100.00
23433;BME280;41331;45.412;10.992;2023-03-14T07:45:14;99701.34;;;11.63;100.00
23433;BME280;41331;45.412;10.992;2023-03-14T07:47:41;99707.25;;;11.65;100.00
23433;BME280;41331;45.412;10.992;2023-03-14T07:50:09;99717.19;;;11.89;100.00
23433;BME280;41331;45.412;10.992;2023-03-14T07:52:37;99704.41;;;11.78;100.00
23433;BME280;41331;45.412;10.992;2023-03-14T07:55:04;99711.03;;;11.92;100.00
23433;BME280;41331;45.412;10.992;2023-03-14T07:57:32;99708.66;;;11.91;100.00
23433;BME280;41331;45.412;10.992;2023-03-14T07:59:59;99699.59;;;11.87;100.00
23433;BME280;41331;45.412;10.992;2023-03-14T08:02:27;99694.66;;;11.77;100.00
23433;BME280;41331;45.412;10.992;2023-03-14T08:04:54;99699.41;;;11.80;100.00
23433;BME280;41331;45.412;10.992;2023-03-14T08:07:22;99691.34;;;11.83;100.00
23433;BME280;41331;45.412;10.992;2023-03-14T08:09:52;99680.34;;;11.80;100.00
23433;BME280;41331;45.412;10.992;2023-03-14T08:12:20;99687.81;;;11.83;100.00
23433;BME280;41331;45.412;10.992;2023-03-14T08:14:47;99695.53;;;11.81;100.00
23433;BME280;41331;45.412;10.992;2023-03-14T08:17:15;99688.28;;;11.85;100.00
23433;BME280;41331;45.412;10.992;2023-03-14T08:19:42;99695.44;;;11.77;100.00
23433;BME280;41331;45.412;10.992;2023-03-14T08:22:09;99696.19;;;11.90;100.00
23433;BME280;41331;45.412;10.992;2023-03-14T08:24:37;99696.09;;;11.86;100.00
23433;BME280;41331;45.412;10.992;2023-03-14T08:27:04;99694.41;;;11.82;100.00
23433;BME280;41331;45.412;10.992;2023-03-14T08:29:34;99701.69;;;11.78;100.00
23433;BME280;41331;45.412;10.992;2023-03-14T08:32:01;99703.28;;;11.79;100.00
23433;BME280;41331;45.412;10.992;2023-03-14T08:34:28;99688.50;;;11.80;100.00
23433;BME280;41331;45.412;10.992;2023-03-14T08:36:56;99698.81;;;11.86;100.00
23433;BME280;41331;45.412;10.992;2023-03-14T08:39:23;99696.00;;;11.83;100.00
23433;BME280;41331;45.412;10.992;2023-03-14T08:41:51;99688.69;;;11.87;100.00
23433;BME280;41331;45.412;10.992;2023-03-14T08:44:18;99690.28;;;11.88;100.00
23433;BME280;41331;45.412;10.992;2023-03-14T08:46:47;99686.22;;;11.98;100.00
23433;BME280;41331;45.412;10.992;2023-03-14T08:49:14;99690.38;;;11.91;100.00
23433;BME280;41331;45.412;10.992;2023-03-14T08:51:42;99687.88;;;12.02;100.00
23433;BME280;41331;45.412;10.992;2023-03-14T08:54:10;99688.84;;;12.10;100.00
23433;BME280;41331;45.412;10.992;2023-03-14T08:56:37;99698.34;;;12.00;100.00
23433;BME280;41331;45.412;10.992;2023-03-14T08:59:05;99691.28;;;12.15;100.00
23433;BME280;41331;45.412;10.992;2023-03-14T09:01:32;99681.94;;;12.16;100.00
23433;BME280;41331;45.412;10.992;2023-03-14T09:04:00;99688.69;;;12.22;100.00
23433;BME280;41331;45.412;10.992;2023-03-14T09:06:32;99690.28;;;12.23;100.00
23433;BME280;41331;45.412;10.992;2023-03-14T09:08:59;99685.38;;;12.13;100.00
23433;BME280;41331;45.412;10.992;2023-03-14T09:11:27;99694.16;;;12.22;100.00
23433;BME280;41331;45.412;10.992;2023-03-14T09:13:54;99702.81;;;12.08;100.00
23433;BME280;41331;45.412;10.992;2023-03-14T09:16:22;99700.41;;;12.23;100.00
23433;BME280;41331;45.412;10.992;2023-03-14T09:18:49;99700.16;;;12.12;100.00
23433;BME280;41331;45.412;10.992;2023-03-14T09:21:17;99701.78;;;11.97;100.00
23433;BME280;41331;45.412;10.992;2023-03-14T09:23:44;99708.91;;;12.02;100.00
23433;BME280;41331;45.412;10.992;2023-03-14T09:26:13;99713.66;;;11.89;100.00
23433;BME280;41331;45.412;10.992;2023-03-14T09:28:40;99705.66;;;11.96;100.00
23433;BME280;41331;45.412;10.992;2023-03-14T09:31:09;99708.66;;;11.91;100.00
23433;BME280;41331;45.412;10.992;2023-03-14T09:33:37;99717.13;;;11.86;100.00
23433;BME280;41331;45.412;10.992;2023-03-14T09:36:05;99716.56;;;11.80;100.00
23433;BME280;41331;45.412;10.992;2023-03-14T09:38:34;99717.81;;;11.83;100.00
23433;BME280;41331;45.412;10.992;2023-03-14T09:41:03;99714.78;;;12.04;100.00
23433;BME280;41331;45.412;10.992;2023-03-14T09:43:40;99713.31;;;11.90;100.00
23433;BME280;41331;45.412;10.992;2023-03-14T09:46:10;99718.00;;;11.90;100.00
23433;BME280;41331;45.412;10.992;2023-03-14T09:48:38;99715.09;;;11.83;100.00
23433;BME280;41331;45.412;10.992;2023-03-14T09:51:16;99715.69;;;11.92;100.00
23433;BME280;41331;45.412;10.992;2023-03-14T09:53:46;99719.75;;;11.82;100.00
23433;BME280;41331;45.412;10.992;2023-03-14T09:56:23;99719.63;;;11.79;100.00
23433;BME280;41331;45.412;10.992;2023-03-14T09:58:55;99706.19;;;12.02;100.00
23433;BME280;41331;45.412;10.992;2023-03-14T10:01:29;99709.28;;;11.84;100.00
23433;BME280;41331;45.412;10.992;2023-03-14T10:04:06;99715.50;;;12.01;100.00
23433;BME280;41331;45.412;10.992;2023-03-14T10:06:34;99714.81;;;11.88;100.00
23433;BME280;41331;45.412;10.992;2023-03-14T10:09:02;99713.75;;;11.77;100.00
23433;BME280;41331;45.412;10.992;2023-03-14T10:11:30;99713.31;;;11.75;100.00
23433;BME280;41331;45.412;10.992;2023-03-14T10:16:29;99729.06;;;11.65;100.00
23433;BME280;41331;45.412;10.992;2023-03-14T10:19:15;99725.72;;;11.56;100.00
23433;BME280;41331;45.412;10.992;2023-03-14T10:21:50;99717.63;;;11.60;100.00
23433;BME280;41331;45.412;10.992;2023-03-14T10:24:26;99709.63;;;11.67;100.00
23433;BME280;41331;45.412;10.992;2023-03-14T10:29:30;99703.28;;;11.31;100.00
23433;BME280;41331;45.412;10.992;2023-03-14T10:32:04;99700.66;;;11.35;100.00
23433;BME280;41331;45.412;10.992;2023-03-14T10:34:34;99700.56;;;11.31;100.00
23433;BME280;41331;45.412;10.992;2023-03-14T10:37:17;99697.66;;;11.24;100.00
23433;BME280;41331;45.412;10.992;2023-03-14T10:39:53;99696.88;;;11.24;100.00
23433;BME280;41331;45.412;10.992;2023-03-14T10:42:26;99693.09;;;11.44;100.00
23433;BME280;41331;45.412;10.992;2023-03-14T10:45:03;99665.25;;;11.35;100.00
23433;BME280;41331;45.412;10.992;2023-03-14T10:47:33;99664.00;;;11.32;100.00
23433;BME280;41331;45.412;10.992;2023-03-14T10:50:30;99652.59;;;11.43;100.00
23433;BME280;41331;45.412;10.992;2023-03-14T10:53:01;99657.94;;;11.55;100.00
23433;BME280;41331;45.412;10.992;2023-03-14T10:55:43;99660.13;;;11.65;100.00
23433;BME280;41331;45.412;10.992;2023-03-14T10:58:22;99655.47;;;11.65;100.00
23433;BME280;41331;45.412;10.992;2023-03-14T11:00:58;99646.66;;;11.72;100.00
23433;BME280;41331;45.412;10.992;2023-03-14T11:03:30;99645.34;;;11.82;100.00
23433;BME280;41331;45.412;10.992;2023-03-14T11:06:10;99645.06;;;11.87;100.00
23433;BME280;41331;45.412;10.992;2023-03-14T11:08:49;99647.91;;;11.75;100.00
23433;BME280;41331;45.412;10.992;2023-03-14T11:11:26;99658.56;;;11.99;100.00
23433;BME280;41331;45.412;10.992;2023-03-14T11:25:06;99654.03;;;11.72;100.00
23433;BME280;41331;45.412;10.992;2023-03-14T11:27:52;99646.38;;;11.77;100.00
23433;BME280;41331;45.412;10.992;2023-03-14T11:33:15;99625.63;;;11.73;100.00
23433;BME280;41331;45.412;10.992;2023-03-14T11:35:45;99623.41;;;11.78;100.00
23433;BME280;41331;45.412;10.992;2023-03-14T11:41:00;99617.19;;;11.78;100.00
23433;BME280;41331;45.412;10.992;2023-03-14T11:43:28;99626.13;;;11.94;100.00
23433;BME280;41331;45.412;10.992;2023-03-14T11:46:03;99621.59;;;11.82;100.00
23433;BME280;41331;45.412;10.992;2023-03-14T11:48:38;99613.84;;;11.68;100.00
23433;BME280;41331;45.412;10.992;2023-03-14T11:51:20;99609.25;;;11.88;100.00
23433;BME280;41331;45.412;10.992;2023-03-14T11:54:39;99620.28;;;11.76;100.00
23433;BME280;41331;45.412;10.992;2023-03-14T11:56:58;99623.28;;;11.71;100.00
23433;BME280;41331;45.412;10.992;2023-03-14T11:59:41;99616.81;;;11.79;100.00
23433;BME280;41331;45.412;10.992;2023-03-14T12:02:39;99607.25;;;11.70;100.00
23433;BME280;41331;45.412;10.992;2023-03-14T12:08:14;99593.47;;;11.62;100.00
23433;BME280;41331;45.412;10.992;2023-03-14T12:10:49;99574.41;;;11.62;100.00
23433;BME280;41331;45.412;10.992;2023-03-14T12:13:17;99580.72;;;11.66;100.00
23433;BME280;41331;45.412;10.992;2023-03-14T12:15:58;99578.91;;;11.55;100.00
23433;BME280;41331;45.412;10.992;2023-03-14T12:18:31;99577.69;;;11.52;100.00
23433;BME280;41331;45.412;10.992;2023-03-14T12:21:04;99591.03;;;11.57;100.00
23433;BME280;41331;45.412;10.992;2023-03-14T12:23:52;99596.47;;;11.57;100.00
23433;BME280;41331;45.412;10.992;2023-03-14T12:26:22;99585.38;;;11.66;100.00
23433;BME280;41331;45.412;10.992;2023-03-14T12:29:04;99566.72;;;11.68;100.00
23433;BME280;41331;45.412;10.992;2023-03-14T12:31:40;99559.94;;;11.78;100.00
23433;BME280;41331;45.412;10.992;2023-03-14T12:39:29;99539.28;;;11.77;100.00
23433;BME280;41331;45.412;10.992;2023-03-14T12:46:58;99544.19;;;12.06;100.00
23433;BME280;41331;45.412;10.992;2023-03-14T12:49:31;99530.69;;;12.13;100.00
23433;BME280;41331;45.412;10.992;2023-03-14T12:52:02;99535.16;;;12.02;100.00
23433;BME280;41331;45.412;10.992;2023-03-14T12:55:03;99531.19;;;12.00;100.00
23433;BME280;41331;45.412;10.992;2023-03-14T12:57:42;99531.63;;;12.02;100.00
23433;BME280;41331;45.412;10.992;2023-03-14T13:00:24;99518.38;;;12.00;100.00
23433;BME280;41331;45.412;10.992;2023-03-14T13:03:02;99511.59;;;12.13;100.00
23433;BME280;41331;45.412;10.992;2023-03-14T13:05:58;99520.03;;;12.28;100.00
23433;BME280;41331;45.412;10.992;2023-03-14T13:08:52;99517.03;;;12.33;100.00
23433;BME280;41331;45.412;10.992;2023-03-14T13:11:23;99519.75;;;12.33;100.00
23433;BME280;41331;45.412;10.992;2023-03-14T13:13:56;99517.25;;;12.24;100.00
23433;BME280;41331;45.412;10.992;2023-03-14T13:16:24;99527.53;;;12.31;100.00
23433;BME280;41331;45.412;10.992;2023-03-14T13:19:04;99528.94;;;12.25;100.00
23433;BME280;41331;45.412;10.992;2023-03-14T13:21:38;99527.38;;;12.24;100.00
23433;BME280;41331;45.412;10.992;2023-03-14T13:24:18;99520.53;;;12.33;100.00
23433;BME280;41331;45.412;10.992;2023-03-14T13:26:47;99519.75;;;12.33;100.00
23433;BME280;41331;45.412;10.992;2023-03-14T13:31:50;99499.44;;;12.30;100.00
23433;BME280;41331;45.412;10.992;2023-03-14T13:34:18;99494.59;;;12.43;100.00
23433;BME280;41331;45.412;10.992;2023-03-14T13:36:46;99495.91;;;12.30;100.00
23433;BME280;41331;45.412;10.992;2023-03-14T13:39:21;99499.06;;;12.32;100.00
23433;BME280;41331;45.412;10.992;2023-03-14T13:41:53;99502.66;;;12.36;100.00
23433;BME280;41331;45.412;10.992;2023-03-14T13:46:58;99490.19;;;13.07;100.00
23433;BME280;41331;45.412;10.992;2023-03-14T13:49:26;99490.91;;;13.57;100.00
23433;BME280;41331;45.412;10.992;2023-03-14T13:51:55;99486.81;;;14.08;100.00
23433;BME280;41331;45.412;10.992;2023-03-14T13:54:25;99482.41;;;14.40;100.00
23433;BME280;41331;45.412;10.992;2023-03-14T13:57:03;99494.19;;;14.04;100.00
23433;BME280;41331;45.412;10.992;2023-03-14T13:59:35;99489.66;;;13.85;100.00